Sunflower IVory — JI3634 — position and weather

sailwx.info

Track history (hours):
 
Tides and Currents Weather Stations Pressure Air Temp Water Temp Dewpoint Dewpoint Depression Visibility Wind Speed Wind Dir Waves Ship Positions

Sunflower IVory

Last reported at 2018-Feb-21 21:41 UTC. Time now 2018-Feb-21 23:07 UTC.
Position N 33°18' E 131°30'.

Length 153 m; draft 5.7 m.

Type: Ship. MMSI: 431300686.

Date/timePositionNaut miles runAvg speedWind from/ knotsBaromVisibWave heightAir tempDewpointWater temp
2018-Feb-21 21:41N 33°18' E 131°30'615.4
2018-Feb-21 21:18N 33°19' E 131°37'517.6
2018-Feb-21 21:00N 33°21' E 131°43'918.6
2018-Feb-21 20:30N 33°26' E 131°52'1419.4
2018-Feb-21 19:48N 33°34' E 132°05'619.7
2018-Feb-21 19:30N 33°38' E 132°11'1220.4
2018-Feb-21 18:55N 33°44' E 132°23'920.2
2018-Feb-21 18:30N 33°50' E 132°31'1019.8
2018-Feb-21 18:00N 33°56' E 132°40'1018.3
2018-Feb-21 17:26N 34°04' E 132°48'6617.5
2018-Feb-21 13:42N 34°27' E 134°03'521.3
2018-Feb-21 13:29N 34°26' E 134°08'1021.4
2018-Feb-21 13:00N 34°25' E 134°20'1121.4
2018-Feb-21 12:30N 34°28' E 134°32'1121.4
2018-Feb-21 12:01N 34°33' E 134°44'1121.1
2018-Feb-21 11:30N 34°37' E 134°56'1019.1
2018-Feb-21 11:00N 34°36' E 135°08'1020.5
2018-Feb-21 10:31N 34°37' E 135°20'4 7.8
2018-Feb-21 10:00N 34°38' E 135°25'0 0.0
2018-Feb-21 09:28N 34°38' E 135°25'0 0.0
2018-Feb-21 08:58N 34°38' E 135°25'0 0.0
2018-Feb-21 08:28N 34°38' E 135°25'0 0.0
2018-Feb-21 07:58N 34°38' E 135°25'0 0.0
2018-Feb-21 07:25N 34°38' E 135°25'0 0.0
2018-Feb-21 06:55N 34°38' E 135°25'0 0.0
2018-Feb-21 06:25N 34°38' E 135°25'0 0.0
2018-Feb-21 05:55N 34°38' E 135°25'0 0.0
2018-Feb-21 05:28N 34°38' E 135°25'0 0.0
2018-Feb-21 04:58N 34°38' E 135°25'0 0.0
2018-Feb-21 04:28N 34°38' E 135°25'0 0.0
2018-Feb-21 03:58N 34°38' E 135°25'0 0.0
2018-Feb-21 03:28N 34°38' E 135°25'0 0.0
2018-Feb-21 02:55N 34°38' E 135°25'0 0.0
2018-Feb-21 02:25N 34°38' E 135°25'0 0.0
2018-Feb-21 01:55N 34°38' E 135°25'0 0.0
2018-Feb-21 01:28N 34°38' E 135°25'0 0.0
2018-Feb-21 00:58N 34°38' E 135°25'0 0.0
2018-Feb-21 00:28N 34°38' E 135°25'0 0.0
2018-Feb-20 23:58N 34°38' E 135°25'0 0.0
2018-Feb-20 23:28N 34°38' E 135°25'0 0.0
2018-Feb-20 23:00N 34°38' E 135°25'0 0.0
2018-Feb-20 22:30N 34°38' E 135°25'0 0.0
2018-Feb-20 22:00N 34°38' E 135°25'0 0.0
2018-Feb-20 21:30N 34°38' E 135°25'4 8.1
2018-Feb-20 21:00N 34°36' E 135°20'917.1
2018-Feb-20 20:31N 34°35' E 135°10'918.8
2018-Feb-20 20:00N 34°37' E 134°59'1121.9
2018-Feb-20 19:31N 34°33' E 134°47'1020.3
2018-Feb-20 19:00N 34°28' E 134°36'1020.1
2018-Feb-20 18:30N 34°24' E 134°24'1019.8
2018-Feb-20 18:00N 34°24' E 134°12'7317.5
2018-Feb-20 13:50N 34°05' E 132°48'721.9
2018-Feb-20 13:31N 33°58' E 132°44'1122.0
2018-Feb-20 13:00N 33°51' E 132°34'1121.4
2018-Feb-20 12:30N 33°44' E 132°24'1121.5
2018-Feb-20 11:59N 33°38' E 132°12'1021.6
2018-Feb-20 11:30N 33°33' E 132°02'1121.7
2018-Feb-20 11:00N 33°26' E 131°51'1120.7
2018-Feb-20 10:29N 33°20' E 131°41'3 0.2
2018-Feb-19 21:24N 33°19' E 131°37'717.8
2018-Feb-19 21:00N 33°21' E 131°46'1219.0
2018-Feb-19 20:23N 33°28' E 131°57'1219.9
2018-Feb-19 19:46N 33°35' E 132°09'620.4
2018-Feb-19 19:30N 33°38' E 132°14'1120.5
2018-Feb-19 18:59N 33°44' E 132°25'1021.1
2018-Feb-19 18:30N 33°51' E 132°34'1021.0
2018-Feb-19 18:00N 33°58' E 132°43'1619.8
2018-Feb-19 17:11N 34°09' E 132°57'5416.5
2018-Feb-19 13:53N 34°25' E 134°00'717.4
2018-Feb-19 13:30N 34°26' E 134°08'1020.1
2018-Feb-19 13:00N 34°24' E 134°20'1020.2
2018-Feb-19 12:30N 34°28' E 134°31'1020.2
2018-Feb-19 12:01N 34°32' E 134°43'1020.5
2018-Feb-19 11:30N 34°36' E 134°54'918.3
2018-Feb-19 11:01N 34°36' E 135°05'1019.9
2018-Feb-19 10:31N 34°37' E 135°17'612.4
2018-Feb-19 10:00N 34°38' E 135°25'0 0.0
2018-Feb-19 09:30N 34°38' E 135°25'0 0.0
2018-Feb-19 09:00N 34°38' E 135°25'0 0.0
2018-Feb-19 08:24N 34°38' E 135°25'0 0.0
2018-Feb-19 08:00N 34°38' E 135°25'0 0.0
2018-Feb-19 07:30N 34°38' E 135°25'0 0.0
2018-Feb-19 07:00N 34°38' E 135°25'0 0.0
2018-Feb-19 06:30N 34°38' E 135°25'0 0.0
2018-Feb-19 06:00N 34°38' E 135°25'0 0.0
2018-Feb-19 05:30N 34°38' E 135°25'0 0.0
2018-Feb-19 05:00N 34°38' E 135°25'0 0.0
2018-Feb-19 04:30N 34°38' E 135°25'0 0.0
2018-Feb-19 04:00N 34°38' E 135°25'0 0.0
2018-Feb-19 03:30N 34°38' E 135°25'0 0.0
2018-Feb-19 03:00N 34°38' E 135°25'0 0.0
2018-Feb-19 02:30N 34°38' E 135°25'0 0.0
2018-Feb-19 02:00N 34°38' E 135°25'0 0.0
2018-Feb-19 01:30N 34°38' E 135°25'0 0.0
2018-Feb-19 01:00N 34°38' E 135°25'0 0.0
2018-Feb-19 00:30N 34°38' E 135°25'0 0.0
2018-Feb-19 00:00N 34°38' E 135°25'0 0.0
2018-Feb-18 23:30N 34°38' E 135°25'0 0.0
2018-Feb-18 23:00N 34°38' E 135°25'0 0.0
2018-Feb-18 22:30N 34°38' E 135°25'0 0.0
2018-Feb-18 22:00N 34°38' E 135°25'0 0.0
2018-Feb-18 21:30N 34°38' E 135°25'4 7.1
2018-Feb-18 21:00N 34°37' E 135°21'917.3
2018-Feb-18 20:30N 34°35' E 135°10'1019.2
2018-Feb-18 20:00N 34°37' E 134°59'1020.7
2018-Feb-18 19:31N 34°32' E 134°48'919.0
2018-Feb-18 19:01N 34°29' E 134°37'918.6
2018-Feb-18 18:30N 34°25' E 134°27'918.3
2018-Feb-18 18:01N 34°24' E 134°16'7517.2
2018-Feb-18 13:37N 34°05' E 132°48'422.0
2018-Feb-18 13:28N 34°02' E 132°45'1021.6
2018-Feb-18 13:00N 33°54' E 132°38'1221.0
2018-Feb-18 12:27N 33°47' E 132°27'1021.7
2018-Feb-18 12:00N 33°42' E 132°17'1221.9
2018-Feb-18 11:28N 33°35' E 132°06'1022.2
2018-Feb-18 11:00N 33°29' E 131°56'1121.4
2018-Feb-18 10:30N 33°22' E 131°46'1120.9
2018-Feb-18 10:00N 33°18' E 131°34'4 0.4
2018-Feb-17 22:06N 33°19' E 131°39'218.3
2018-Feb-17 22:00N 33°20' E 131°41'1018.5
2018-Feb-17 21:29N 33°26' E 131°50'918.3
2018-Feb-17 21:00N 33°31' E 131°58'1118.5
2018-Feb-17 20:25N 33°37' E 132°09'920.3
2018-Feb-17 19:59N 33°42' E 132°18'1020.9
2018-Feb-17 19:30N 33°47' E 132°28'1221.4
2018-Feb-17 18:58N 33°55' E 132°38'7517.4
2018-Feb-17 14:38N 34°26' E 134°02'215.4
2018-Feb-17 14:31N 34°27' E 134°04'1019.9
2018-Feb-17 13:59N 34°24' E 134°16'919.5
2018-Feb-17 13:30N 34°26' E 134°27'1019.6
2018-Feb-17 13:01N 34°30' E 134°38'1020.2
2018-Feb-17 12:31N 34°34' E 134°49'1121.0
2018-Feb-17 12:00N 34°37' E 135°01'1019.1
2018-Feb-17 11:31N 34°36' E 135°13'918.2
2018-Feb-17 11:00N 34°38' E 135°24'1 1.8
2018-Feb-17 10:30N 34°38' E 135°25'0 0.0
2018-Feb-17 09:59N 34°38' E 135°25'0 0.0
2018-Feb-17 09:29N 34°38' E 135°25'0 0.0
2018-Feb-17 08:59N 34°38' E 135°25'0 0.0
2018-Feb-17 08:29N 34°38' E 135°25'0 0.0
2018-Feb-17 07:59N 34°38' E 135°25'0 0.0
2018-Feb-17 07:29N 34°38' E 135°25'0 0.0
2018-Feb-17 06:59N 34°38' E 135°25'0 0.0
2018-Feb-17 06:29N 34°38' E 135°25'0 0.0
2018-Feb-17 05:59N 34°38' E 135°25'0 0.0
2018-Feb-17 05:29N 34°38' E 135°25'0 0.0
2018-Feb-17 04:59N 34°38' E 135°25'0 0.0
2018-Feb-17 04:29N 34°38' E 135°25'0 0.0
2018-Feb-17 03:59N 34°38' E 135°25'0 0.0
2018-Feb-17 03:29N 34°38' E 135°25'0 0.0
2018-Feb-17 02:59N 34°38' E 135°25'0 0.0
2018-Feb-17 02:29N 34°38' E 135°25'0 0.0
2018-Feb-17 01:59N 34°38' E 135°25'0 0.0
2018-Feb-17 01:29N 34°38' E 135°25'0 0.0
2018-Feb-17 00:59N 34°38' E 135°25'0 0.0
2018-Feb-17 00:29N 34°38' E 135°25'0 0.0
2018-Feb-16 23:59N 34°38' E 135°25'0 0.0
2018-Feb-16 23:29N 34°38' E 135°25'0 0.0
2018-Feb-16 22:59N 34°38' E 135°25'0 0.0
2018-Feb-16 22:29N 34°38' E 135°25'2 3.5
2018-Feb-16 22:01N 34°38' E 135°23'918.1
2018-Feb-16 21:31N 34°34' E 135°13'917.6
2018-Feb-16 21:00N 34°36' E 135°02'917.4
2018-Feb-16 20:30N 34°34' E 134°52'918.7
2018-Feb-16 20:00N 34°29' E 134°42'1020.2
2018-Feb-16 19:31N 34°25' E 134°31'1020.8
2018-Feb-16 19:00N 34°23' E 134°19'7517.4
2018-Feb-16 14:43N 34°07' E 132°51'520.6
2018-Feb-16 14:29N 34°02' E 132°47'1021.1
2018-Feb-16 14:01N 33°55' E 132°39'1120.9
2018-Feb-16 13:29N 33°48' E 132°30'1021.2
2018-Feb-16 13:00N 33°42' E 132°20'1121.0
2018-Feb-16 12:30N 33°36' E 132°09'1121.2
2018-Feb-16 12:00N 33°30' E 131°59'1121.2
2018-Feb-16 11:30N 33°24' E 131°48'1020.7
2018-Feb-16 11:01N 33°19' E 131°37'6 0.5
2018-Feb-15 21:45N 33°18' E 131°30'413.9
2018-Feb-15 21:29N 33°20' E 131°34'919.0
2018-Feb-15 21:00N 33°20' E 131°45'918.3
2018-Feb-15 20:30N 33°24' E 131°55'917.8
2018-Feb-15 20:00N 33°30' E 132°04'918.6
2018-Feb-15 19:30N 33°35' E 132°13'1019.1
2018-Feb-15 19:00N 33°40' E 132°23'1019.6
2018-Feb-15 18:28N 33°48' E 132°30'920.0
2018-Feb-15 18:00N 33°55' E 132°38'7617.5
2018-Feb-15 13:41N 34°26' E 134°02'314.4
2018-Feb-15 13:28N 34°27' E 134°05'919.5
2018-Feb-15 13:00N 34°25' E 134°16'1020.6
2018-Feb-15 12:30N 34°28' E 134°28'1020.7
2018-Feb-15 12:00N 34°32' E 134°40'1121.6
2018-Feb-15 11:30N 34°35' E 134°52'1020.5
2018-Feb-15 11:00N 34°36' E 135°04'1020.5
2018-Feb-15 10:30N 34°36' E 135°17'713.3
2018-Feb-15 10:00N 34°38' E 135°25'0 0.0
2018-Feb-15 09:30N 34°38' E 135°25'0 0.0
2018-Feb-15 09:00N 34°38' E 135°25'0 0.0
2018-Feb-15 08:30N 34°38' E 135°25'0 0.0
2018-Feb-15 08:00N 34°38' E 135°25'0 0.0
2018-Feb-15 07:30N 34°38' E 135°25'0 0.0
2018-Feb-15 07:00N 34°38' E 135°25'0 0.0
2018-Feb-15 06:30N 34°38' E 135°25'0 0.0
2018-Feb-15 06:00N 34°38' E 135°25'0 0.0
2018-Feb-15 05:30N 34°38' E 135°25'0 0.0
2018-Feb-15 05:00N 34°38' E 135°25'0 0.0
2018-Feb-15 04:30N 34°38' E 135°25'0 0.0
2018-Feb-15 04:00N 34°38' E 135°25'0 0.0
2018-Feb-15 03:30N 34°38' E 135°25'0 0.0
2018-Feb-15 03:00N 34°38' E 135°25'0 0.0
2018-Feb-15 02:30N 34°38' E 135°25'0 0.0
2018-Feb-15 02:00N 34°38' E 135°25'0 0.0
2018-Feb-15 01:30N 34°38' E 135°25'0 0.0
2018-Feb-15 01:00N 34°38' E 135°25'0 0.0
2018-Feb-15 00:30N 34°38' E 135°25'0 0.0
2018-Feb-15 00:00N 34°38' E 135°25'0 0.0
2018-Feb-14 23:30N 34°38' E 135°25'0 0.0
2018-Feb-14 23:00N 34°38' E 135°25'0 0.0
2018-Feb-14 22:30N 34°38' E 135°25'0 0.0
2018-Feb-14 22:00N 34°38' E 135°25'0 0.0
2018-Feb-14 21:30N 34°38' E 135°25'4 7.8
2018-Feb-14 21:00N 34°37' E 135°20'1019.4
2018-Feb-14 20:31N 34°35' E 135°09'918.1
2018-Feb-14 20:00N 34°36' E 134°58'1020.3
2018-Feb-14 19:31N 34°32' E 134°47'1020.0
2018-Feb-14 19:01N 34°28' E 134°36'918.6
2018-Feb-14 18:30N 34°25' E 134°25'918.5
2018-Feb-14 18:00N 34°24' E 134°14'7417.7
2018-Feb-14 13:50N 34°03' E 132°48'721.4
2018-Feb-14 13:30N 33°57' E 132°43'1121.1
2018-Feb-14 13:00N 33°50' E 132°34'1220.9
2018-Feb-14 12:25N 33°43' E 132°22'1421.3
2018-Feb-14 11:45N 33°34' E 132°09'721.1
2018-Feb-14 11:26N 33°30' E 132°02'921.3
2018-Feb-14 11:00N 33°25' E 131°53'1121.2
2018-Feb-14 10:30N 33°20' E 131°42'8 0.6
2018-Feb-13 21:33N 33°20' E 131°32'320.5
2018-Feb-13 21:23N 33°20' E 131°36'920.0
2018-Feb-13 20:55N 33°24' E 131°47'819.7
2018-Feb-13 20:29N 33°28' E 131°55'1019.7
2018-Feb-13 19:59N 33°35' E 132°04'1020.1
2018-Feb-13 19:28N 33°40' E 132°15'1020.5
2018-Feb-13 18:59N 33°46' E 132°25'1020.7
2018-Feb-13 18:30N 33°52' E 132°34'1021.0
2018-Feb-13 18:00N 33°59' E 132°43'7216.7
2018-Feb-13 13:43N 34°27' E 134°03'418.4
2018-Feb-13 13:30N 34°26' E 134°08'919.2
2018-Feb-13 13:01N 34°24' E 134°19'1020.1
2018-Feb-13 12:30N 34°29' E 134°30'1019.9
2018-Feb-13 12:00N 34°33' E 134°42'1020.6
2018-Feb-13 11:30N 34°36' E 134°54'1019.4
2018-Feb-13 11:01N 34°36' E 135°05'1019.8
2018-Feb-13 10:30N 34°36' E 135°17'612.6
2018-Feb-13 10:00N 34°38' E 135°25'0 0.0
2018-Feb-13 09:28N 34°38' E 135°25'0 0.0
2018-Feb-13 08:58N 34°38' E 135°25'0 0.0
2018-Feb-13 08:28N 34°38' E 135°25'0 0.0
2018-Feb-13 07:58N 34°38' E 135°25'0 0.0
2018-Feb-13 07:28N 34°38' E 135°25'0 0.0
2018-Feb-13 06:55N 34°38' E 135°25'0 0.0
2018-Feb-13 06:28N 34°38' E 135°25'0 0.0
2018-Feb-13 05:58N 34°38' E 135°25'0 0.0
2018-Feb-13 05:28N 34°38' E 135°25'0 0.0
2018-Feb-13 04:58N 34°38' E 135°25'0 0.0
2018-Feb-13 04:28N 34°38' E 135°25'0 0.0
2018-Feb-13 03:58N 34°38' E 135°25'0 0.0
2018-Feb-13 03:28N 34°38' E 135°25'0 0.0
2018-Feb-13 02:58N 34°38' E 135°25'0 0.0
2018-Feb-13 02:28N 34°38' E 135°25'0 0.0
2018-Feb-13 01:58N 34°38' E 135°25'0 0.0
2018-Feb-13 01:25N 34°38' E 135°25'0 0.0
2018-Feb-13 00:58N 34°38' E 135°25'0 0.0
2018-Feb-13 00:28N 34°38' E 135°25'0 0.0
2018-Feb-12 23:58N 34°38' E 135°25'0 0.0
2018-Feb-12 23:28N 34°38' E 135°25'0 0.0
2018-Feb-12 22:58N 34°38' E 135°25'0 0.0
2018-Feb-12 22:28N 34°38' E 135°25'0 0.0
2018-Feb-12 21:58N 34°38' E 135°25'0 0.0
2018-Feb-12 21:30N 34°38' E 135°25'4 7.6
2018-Feb-12 21:00N 34°36' E 135°21'1019.6
2018-Feb-12 20:30N 34°35' E 135°09'917.4
2018-Feb-12 20:00N 34°37' E 134°59'917.5
2018-Feb-12 19:30N 34°33' E 134°49'918.5
2018-Feb-12 19:00N 34°30' E 134°39'918.9
2018-Feb-12 18:30N 34°25' E 134°28'1019.6
2018-Feb-12 18:00N 34°24' E 134°17'7417.6
2018-Feb-12 13:48N 34°05' E 132°50'620.8
2018-Feb-12 13:30N 34°00' E 132°45'1120.7
2018-Feb-12 13:00N 33°53' E 132°37'1120.9
2018-Feb-12 12:28N 33°45' E 132°26'1921.0
2018-Feb-12 11:34N 33°35' E 132°07'120.4
2018-Feb-12 11:29N 33°34' E 132°06'1021.2
2018-Feb-12 11:00N 33°28' E 131°56'1121.3
2018-Feb-12 10:30N 33°22' E 131°45'  
Track history (hours):
 
Tides and Currents Weather Stations Pressure Air Temp Water Temp Dewpoint Dewpoint Depression Visibility Wind Speed Wind Dir Waves Ship Positions

Sunflower IVory

Last reported at 2018-Feb-21 21:41 UTC. Time now 2018-Feb-21 23:07 UTC.
Position N 33°18' E 131°30'.

Length 153 m; draft 5.7 m.

Type: Ship. MMSI: 431300686.

Date/timePositionNaut miles runAvg speedWind from/ knotsBaromVisibWave heightAir tempDewpointWater temp
2018-Feb-21 21:41N 33°18' E 131°30'615.4
2018-Feb-21 21:18N 33°19' E 131°37'517.6
2018-Feb-21 21:00N 33°21' E 131°43'918.6
2018-Feb-21 20:30N 33°26' E 131°52'1419.4
2018-Feb-21 19:48N 33°34' E 132°05'619.7
2018-Feb-21 19:30N 33°38' E 132°11'1220.4
2018-Feb-21 18:55N 33°44' E 132°23'920.2
2018-Feb-21 18:30N 33°50' E 132°31'1019.8
2018-Feb-21 18:00N 33°56' E 132°40'1018.3
2018-Feb-21 17:26N 34°04' E 132°48'6617.5
2018-Feb-21 13:42N 34°27' E 134°03'521.3
2018-Feb-21 13:29N 34°26' E 134°08'1021.4
2018-Feb-21 13:00N 34°25' E 134°20'1121.4
2018-Feb-21 12:30N 34°28' E 134°32'1121.4
2018-Feb-21 12:01N 34°33' E 134°44'1121.1
2018-Feb-21 11:30N 34°37' E 134°56'1019.1
2018-Feb-21 11:00N 34°36' E 135°08'1020.5
2018-Feb-21 10:31N 34°37' E 135°20'4 7.8
2018-Feb-21 10:00N 34°38' E 135°25'0 0.0
2018-Feb-21 09:28N 34°38' E 135°25'0 0.0
2018-Feb-21 08:58N 34°38' E 135°25'0 0.0
2018-Feb-21 08:28N 34°38' E 135°25'0 0.0
2018-Feb-21 07:58N 34°38' E 135°25'0 0.0
2018-Feb-21 07:25N 34°38' E 135°25'0 0.0
2018-Feb-21 06:55N 34°38' E 135°25'0 0.0
2018-Feb-21 06:25N 34°38' E 135°25'0 0.0
2018-Feb-21 05:55N 34°38' E 135°25'0 0.0
2018-Feb-21 05:28N 34°38' E 135°25'0 0.0
2018-Feb-21 04:58N 34°38' E 135°25'0 0.0
2018-Feb-21 04:28N 34°38' E 135°25'0 0.0
2018-Feb-21 03:58N 34°38' E 135°25'0 0.0
2018-Feb-21 03:28N 34°38' E 135°25'0 0.0
2018-Feb-21 02:55N 34°38' E 135°25'0 0.0
2018-Feb-21 02:25N 34°38' E 135°25'0 0.0
2018-Feb-21 01:55N 34°38' E 135°25'0 0.0
2018-Feb-21 01:28N 34°38' E 135°25'0 0.0
2018-Feb-21 00:58N 34°38' E 135°25'0 0.0
2018-Feb-21 00:28N 34°38' E 135°25'0 0.0
2018-Feb-20 23:58N 34°38' E 135°25'0 0.0
2018-Feb-20 23:28N 34°38' E 135°25'0 0.0
2018-Feb-20 23:00N 34°38' E 135°25'0 0.0
2018-Feb-20 22:30N 34°38' E 135°25'0 0.0
2018-Feb-20 22:00N 34°38' E 135°25'0 0.0
2018-Feb-20 21:30N 34°38' E 135°25'4 8.1
2018-Feb-20 21:00N 34°36' E 135°20'917.1
2018-Feb-20 20:31N 34°35' E 135°10'918.8
2018-Feb-20 20:00N 34°37' E 134°59'1121.9
2018-Feb-20 19:31N 34°33' E 134°47'1020.3
2018-Feb-20 19:00N 34°28' E 134°36'1020.1
2018-Feb-20 18:30N 34°24' E 134°24'1019.8
2018-Feb-20 18:00N 34°24' E 134°12'7317.5
2018-Feb-20 13:50N 34°05' E 132°48'721.9
2018-Feb-20 13:31N 33°58' E 132°44'1122.0
2018-Feb-20 13:00N 33°51' E 132°34'1121.4
2018-Feb-20 12:30N 33°44' E 132°24'1121.5
2018-Feb-20 11:59N 33°38' E 132°12'1021.6
2018-Feb-20 11:30N 33°33' E 132°02'1121.7
2018-Feb-20 11:00N 33°26' E 131°51'1120.7
2018-Feb-20 10:29N 33°20' E 131°41'3 0.2
2018-Feb-19 21:24N 33°19' E 131°37'717.8
2018-Feb-19 21:00N 33°21' E 131°46'1219.0
2018-Feb-19 20:23N 33°28' E 131°57'1219.9
2018-Feb-19 19:46N 33°35' E 132°09'620.4
2018-Feb-19 19:30N 33°38' E 132°14'1120.5
2018-Feb-19 18:59N 33°44' E 132°25'1021.1
2018-Feb-19 18:30N 33°51' E 132°34'1021.0
2018-Feb-19 18:00N 33°58' E 132°43'1619.8
2018-Feb-19 17:11N 34°09' E 132°57'5416.5
2018-Feb-19 13:53N 34°25' E 134°00'717.4
2018-Feb-19 13:30N 34°26' E 134°08'1020.1
2018-Feb-19 13:00N 34°24' E 134°20'1020.2
2018-Feb-19 12:30N 34°28' E 134°31'1020.2
2018-Feb-19 12:01N 34°32' E 134°43'1020.5
2018-Feb-19 11:30N 34°36' E 134°54'918.3
2018-Feb-19 11:01N 34°36' E 135°05'1019.9
2018-Feb-19 10:31N 34°37' E 135°17'612.4
2018-Feb-19 10:00N 34°38' E 135°25'0 0.0
2018-Feb-19 09:30N 34°38' E 135°25'0 0.0
2018-Feb-19 09:00N 34°38' E 135°25'0 0.0
2018-Feb-19 08:24N 34°38' E 135°25'0 0.0
2018-Feb-19 08:00N 34°38' E 135°25'0 0.0
2018-Feb-19 07:30N 34°38' E 135°25'0 0.0
2018-Feb-19 07:00N 34°38' E 135°25'0 0.0
2018-Feb-19 06:30N 34°38' E 135°25'0 0.0
2018-Feb-19 06:00N 34°38' E 135°25'0 0.0
2018-Feb-19 05:30N 34°38' E 135°25'0 0.0
2018-Feb-19 05:00N 34°38' E 135°25'0 0.0
2018-Feb-19 04:30N 34°38' E 135°25'0 0.0
2018-Feb-19 04:00N 34°38' E 135°25'0 0.0
2018-Feb-19 03:30N 34°38' E 135°25'0 0.0
2018-Feb-19 03:00N 34°38' E 135°25'0 0.0
2018-Feb-19 02:30N 34°38' E 135°25'0 0.0
2018-Feb-19 02:00N 34°38' E 135°25'0 0.0
2018-Feb-19 01:30N 34°38' E 135°25'0 0.0
2018-Feb-19 01:00N 34°38' E 135°25'0 0.0
2018-Feb-19 00:30N 34°38' E 135°25'0 0.0
2018-Feb-19 00:00N 34°38' E 135°25'0 0.0
2018-Feb-18 23:30N 34°38' E 135°25'0 0.0
2018-Feb-18 23:00N 34°38' E 135°25'0 0.0
2018-Feb-18 22:30N 34°38' E 135°25'0 0.0
2018-Feb-18 22:00N 34°38' E 135°25'0 0.0
2018-Feb-18 21:30N 34°38' E 135°25'4 7.1
2018-Feb-18 21:00N 34°37' E 135°21'917.3
2018-Feb-18 20:30N 34°35' E 135°10'1019.2
2018-Feb-18 20:00N 34°37' E 134°59'1020.7
2018-Feb-18 19:31N 34°32' E 134°48'919.0
2018-Feb-18 19:01N 34°29' E 134°37'918.6
2018-Feb-18 18:30N 34°25' E 134°27'918.3
2018-Feb-18 18:01N 34°24' E 134°16'7517.2
2018-Feb-18 13:37N 34°05' E 132°48'422.0
2018-Feb-18 13:28N 34°02' E 132°45'1021.6
2018-Feb-18 13:00N 33°54' E 132°38'1221.0
2018-Feb-18 12:27N 33°47' E 132°27'1021.7
2018-Feb-18 12:00N 33°42' E 132°17'1221.9
2018-Feb-18 11:28N 33°35' E 132°06'1022.2
2018-Feb-18 11:00N 33°29' E 131°56'1121.4
2018-Feb-18 10:30N 33°22' E 131°46'1120.9
2018-Feb-18 10:00N 33°18' E 131°34'4 0.4
2018-Feb-17 22:06N 33°19' E 131°39'218.3
2018-Feb-17 22:00N 33°20' E 131°41'1018.5
2018-Feb-17 21:29N 33°26' E 131°50'918.3
2018-Feb-17 21:00N 33°31' E 131°58'1118.5
2018-Feb-17 20:25N 33°37' E 132°09'920.3
2018-Feb-17 19:59N 33°42' E 132°18'1020.9
2018-Feb-17 19:30N 33°47' E 132°28'1221.4
2018-Feb-17 18:58N 33°55' E 132°38'7517.4
2018-Feb-17 14:38N 34°26' E 134°02'215.4
2018-Feb-17 14:31N 34°27' E 134°04'1019.9
2018-Feb-17 13:59N 34°24' E 134°16'919.5
2018-Feb-17 13:30N 34°26' E 134°27'1019.6
2018-Feb-17 13:01N 34°30' E 134°38'1020.2
2018-Feb-17 12:31N 34°34' E 134°49'1121.0
2018-Feb-17 12:00N 34°37' E 135°01'1019.1
2018-Feb-17 11:31N 34°36' E 135°13'918.2
2018-Feb-17 11:00N 34°38' E 135°24'1 1.8
2018-Feb-17 10:30N 34°38' E 135°25'0 0.0
2018-Feb-17 09:59N 34°38' E 135°25'0 0.0
2018-Feb-17 09:29N 34°38' E 135°25'0 0.0
2018-Feb-17 08:59N 34°38' E 135°25'0 0.0
2018-Feb-17 08:29N 34°38' E 135°25'0 0.0
2018-Feb-17 07:59N 34°38' E 135°25'0 0.0
2018-Feb-17 07:29N 34°38' E 135°25'0 0.0
2018-Feb-17 06:59N 34°38' E 135°25'0 0.0
2018-Feb-17 06:29N 34°38' E 135°25'0 0.0
2018-Feb-17 05:59N 34°38' E 135°25'0 0.0
2018-Feb-17 05:29N 34°38' E 135°25'0 0.0
2018-Feb-17 04:59N 34°38' E 135°25'0 0.0
2018-Feb-17 04:29N 34°38' E 135°25'0 0.0
2018-Feb-17 03:59N 34°38' E 135°25'0 0.0
2018-Feb-17 03:29N 34°38' E 135°25'0 0.0
2018-Feb-17 02:59N 34°38' E 135°25'0 0.0
2018-Feb-17 02:29N 34°38' E 135°25'0 0.0
2018-Feb-17 01:59N 34°38' E 135°25'0 0.0
2018-Feb-17 01:29N 34°38' E 135°25'0 0.0
2018-Feb-17 00:59N 34°38' E 135°25'0 0.0
2018-Feb-17 00:29N 34°38' E 135°25'0 0.0
2018-Feb-16 23:59N 34°38' E 135°25'0 0.0
2018-Feb-16 23:29N 34°38' E 135°25'0 0.0
2018-Feb-16 22:59N 34°38' E 135°25'0 0.0
2018-Feb-16 22:29N 34°38' E 135°25'2 3.5
2018-Feb-16 22:01N 34°38' E 135°23'918.1
2018-Feb-16 21:31N 34°34' E 135°13'917.6
2018-Feb-16 21:00N 34°36' E 135°02'917.4
2018-Feb-16 20:30N 34°34' E 134°52'918.7
2018-Feb-16 20:00N 34°29' E 134°42'1020.2
2018-Feb-16 19:31N 34°25' E 134°31'1020.8
2018-Feb-16 19:00N 34°23' E 134°19'7517.4
2018-Feb-16 14:43N 34°07' E 132°51'520.6
2018-Feb-16 14:29N 34°02' E 132°47'1021.1
2018-Feb-16 14:01N 33°55' E 132°39'1120.9
2018-Feb-16 13:29N 33°48' E 132°30'1021.2
2018-Feb-16 13:00N 33°42' E 132°20'1121.0
2018-Feb-16 12:30N 33°36' E 132°09'1121.2
2018-Feb-16 12:00N 33°30' E 131°59'1121.2
2018-Feb-16 11:30N 33°24' E 131°48'1020.7
2018-Feb-16 11:01N 33°19' E 131°37'6 0.5
2018-Feb-15 21:45N 33°18' E 131°30'413.9
2018-Feb-15 21:29N 33°20' E 131°34'919.0
2018-Feb-15 21:00N 33°20' E 131°45'918.3
2018-Feb-15 20:30N 33°24' E 131°55'917.8
2018-Feb-15 20:00N 33°30' E 132°04'918.6
2018-Feb-15 19:30N 33°35' E 132°13'1019.1
2018-Feb-15 19:00N 33°40' E 132°23'1019.6
2018-Feb-15 18:28N 33°48' E 132°30'920.0
2018-Feb-15 18:00N 33°55' E 132°38'7617.5
2018-Feb-15 13:41N 34°26' E 134°02'314.4
2018-Feb-15 13:28N 34°27' E 134°05'919.5
2018-Feb-15 13:00N 34°25' E 134°16'1020.6
2018-Feb-15 12:30N 34°28' E 134°28'1020.7
2018-Feb-15 12:00N 34°32' E 134°40'1121.6
2018-Feb-15 11:30N 34°35' E 134°52'1020.5
2018-Feb-15 11:00N 34°36' E 135°04'1020.5
2018-Feb-15 10:30N 34°36' E 135°17'713.3
2018-Feb-15 10:00N 34°38' E 135°25'0 0.0
2018-Feb-15 09:30N 34°38' E 135°25'0 0.0
2018-Feb-15 09:00N 34°38' E 135°25'0 0.0
2018-Feb-15 08:30N 34°38' E 135°25'0 0.0
2018-Feb-15 08:00N 34°38' E 135°25'0 0.0
2018-Feb-15 07:30N 34°38' E 135°25'0 0.0
2018-Feb-15 07:00N 34°38' E 135°25'0 0.0
2018-Feb-15 06:30N 34°38' E 135°25'0 0.0
2018-Feb-15 06:00N 34°38' E 135°25'0 0.0
2018-Feb-15 05:30N 34°38' E 135°25'0 0.0
2018-Feb-15 05:00N 34°38' E 135°25'0 0.0
2018-Feb-15 04:30N 34°38' E 135°25'0 0.0
2018-Feb-15 04:00N 34°38' E 135°25'0 0.0
2018-Feb-15 03:30N 34°38' E 135°25'0 0.0
2018-Feb-15 03:00N 34°38' E 135°25'0 0.0
2018-Feb-15 02:30N 34°38' E 135°25'0 0.0
2018-Feb-15 02:00N 34°38' E 135°25'0 0.0
2018-Feb-15 01:30N 34°38' E 135°25'0 0.0
2018-Feb-15 01:00N 34°38' E 135°25'0 0.0
2018-Feb-15 00:30N 34°38' E 135°25'0 0.0
2018-Feb-15 00:00N 34°38' E 135°25'0 0.0
2018-Feb-14 23:30N 34°38' E 135°25'0 0.0
2018-Feb-14 23:00N 34°38' E 135°25'0 0.0
2018-Feb-14 22:30N 34°38' E 135°25'0 0.0
2018-Feb-14 22:00N 34°38' E 135°25'0 0.0
2018-Feb-14 21:30N 34°38' E 135°25'4 7.8
2018-Feb-14 21:00N 34°37' E 135°20'1019.4
2018-Feb-14 20:31N 34°35' E 135°09'918.1
2018-Feb-14 20:00N 34°36' E 134°58'1020.3
2018-Feb-14 19:31N 34°32' E 134°47'1020.0
2018-Feb-14 19:01N 34°28' E 134°36'918.6
2018-Feb-14 18:30N 34°25' E 134°25'918.5
2018-Feb-14 18:00N 34°24' E 134°14'7417.7
2018-Feb-14 13:50N 34°03' E 132°48'721.4
2018-Feb-14 13:30N 33°57' E 132°43'1121.1
2018-Feb-14 13:00N 33°50' E 132°34'1220.9
2018-Feb-14 12:25N 33°43' E 132°22'1421.3
2018-Feb-14 11:45N 33°34' E 132°09'721.1
2018-Feb-14 11:26N 33°30' E 132°02'921.3
2018-Feb-14 11:00N 33°25' E 131°53'1121.2
2018-Feb-14 10:30N 33°20' E 131°42'8 0.6
2018-Feb-13 21:33N 33°20' E 131°32'320.5
2018-Feb-13 21:23N 33°20' E 131°36'920.0
2018-Feb-13 20:55N 33°24' E 131°47'819.7
2018-Feb-13 20:29N 33°28' E 131°55'1019.7
2018-Feb-13 19:59N 33°35' E 132°04'1020.1
2018-Feb-13 19:28N 33°40' E 132°15'1020.5
2018-Feb-13 18:59N 33°46' E 132°25'1020.7
2018-Feb-13 18:30N 33°52' E 132°34'1021.0
2018-Feb-13 18:00N 33°59' E 132°43'7216.7
2018-Feb-13 13:43N 34°27' E 134°03'418.4
2018-Feb-13 13:30N 34°26' E 134°08'919.2
2018-Feb-13 13:01N 34°24' E 134°19'1020.1
2018-Feb-13 12:30N 34°29' E 134°30'1019.9
2018-Feb-13 12:00N 34°33' E 134°42'1020.6
2018-Feb-13 11:30N 34°36' E 134°54'1019.4
2018-Feb-13 11:01N 34°36' E 135°05'1019.8
2018-Feb-13 10:30N 34°36' E 135°17'612.6
2018-Feb-13 10:00N 34°38' E 135°25'0 0.0
2018-Feb-13 09:28N 34°38' E 135°25'0 0.0
2018-Feb-13 08:58N 34°38' E 135°25'0 0.0
2018-Feb-13 08:28N 34°38' E 135°25'0 0.0
2018-Feb-13 07:58N 34°38' E 135°25'0 0.0
2018-Feb-13 07:28N 34°38' E 135°25'0 0.0
2018-Feb-13 06:55N 34°38' E 135°25'0 0.0
2018-Feb-13 06:28N 34°38' E 135°25'0 0.0
2018-Feb-13 05:58N 34°38' E 135°25'0 0.0
2018-Feb-13 05:28N 34°38' E 135°25'0 0.0
2018-Feb-13 04:58N 34°38' E 135°25'0 0.0
2018-Feb-13 04:28N 34°38' E 135°25'0 0.0
2018-Feb-13 03:58N 34°38' E 135°25'0 0.0
2018-Feb-13 03:28N 34°38' E 135°25'0 0.0
2018-Feb-13 02:58N 34°38' E 135°25'0 0.0
2018-Feb-13 02:28N 34°38' E 135°25'0 0.0
2018-Feb-13 01:58N 34°38' E 135°25'0 0.0
2018-Feb-13 01:25N 34°38' E 135°25'0 0.0
2018-Feb-13 00:58N 34°38' E 135°25'0 0.0
2018-Feb-13 00:28N 34°38' E 135°25'0 0.0
2018-Feb-12 23:58N 34°38' E 135°25'0 0.0
2018-Feb-12 23:28N 34°38' E 135°25'0 0.0
2018-Feb-12 22:58N 34°38' E 135°25'0 0.0
2018-Feb-12 22:28N 34°38' E 135°25'0 0.0
2018-Feb-12 21:58N 34°38' E 135°25'0 0.0
2018-Feb-12 21:30N 34°38' E 135°25'4 7.6
2018-Feb-12 21:00N 34°36' E 135°21'1019.6
2018-Feb-12 20:30N 34°35' E 135°09'917.4
2018-Feb-12 20:00N 34°37' E 134°59'917.5
2018-Feb-12 19:30N 34°33' E 134°49'918.5
2018-Feb-12 19:00N 34°30' E 134°39'918.9
2018-Feb-12 18:30N 34°25' E 134°28'1019.6
2018-Feb-12 18:00N 34°24' E 134°17'7417.6
2018-Feb-12 13:48N 34°05' E 132°50'620.8
2018-Feb-12 13:30N 34°00' E 132°45'1120.7
2018-Feb-12 13:00N 33°53' E 132°37'1120.9
2018-Feb-12 12:28N 33°45' E 132°26'1921.0
2018-Feb-12 11:34N 33°35' E 132°07'120.4
2018-Feb-12 11:29N 33°34' E 132°06'1021.2
2018-Feb-12 11:00N 33°28' E 131°56'1121.3
2018-Feb-12 10:30N 33°22' E 131°45'  

Dump ship's entire track history